Time;durP1;ratioP1;P1;durP2;ratioP2;P2;SDS_P1;SDS_P2;PMS_P1;PMS_P2;Temp;Humidity;BMP_temperature;BMP_pressure;BME280_temperature;BME280_humidity;BME280_pressure;Samples;Min_cycle;Max_cycle;Signal;HPM_P1;HPM_P2
2023/10/04 00:02:27;;;;;;;2.40;1.60;;;;;;;;;;6216056;28;20199;-72
2023/10/04 00:05:28;;;;;;;4.13;1.43;;;;;;;;;;6225861;28;20217;-72
2023/10/04 00:08:29;;;;;;;4.97;1.60;;;;;;;;;;6208229;28;20191;-72
2023/10/04 00:11:33;;;;;;;2.03;1.50;;;;;;;;;;6207217;28;20182;-72
2023/10/04 00:14:34;;;;;;;1.60;1.33;;;;;;;;;;6219230;28;20218;-72
2023/10/04 00:17:35;;;;;;;2.27;1.10;;;;;;;;;;6206860;28;20190;-72
2023/10/04 00:20:36;;;;;;;3.80;1.50;;;;;;;;;;6196568;28;20246;-72
2023/10/04 00:23:41;;;;;;;2.70;1.30;;;;;;;;;;6212632;28;20377;-72
2023/10/04 00:26:42;;;;;;;2.40;1.40;;;;;;;;;;6199107;28;20203;-72
2023/10/04 00:29:44;;;;;;;2.00;1.20;;;;;;;;;;6207523;28;20187;-72
2023/10/04 00:32:46;;;;;;;2.73;1.30;;;;;;;;;;6210624;28;20179;-72
2023/10/04 00:35:47;;;;;;;2.80;1.30;;;;;;;;;;6218719;28;20192;-72
2023/10/04 00:38:49;;;;;;;2.63;1.23;;;;;;;;;;6204927;28;20198;-72
2023/10/04 00:41:53;;;;;;;1.67;1.40;;;;;;;;;;6206029;28;20226;-72
2023/10/04 00:44:54;;;;;;;2.90;1.20;;;;;;;;;;6210657;28;20196;-72
2023/10/04 00:47:58;;;;;;;1.87;1.10;;;;;;;;;;6206477;28;20200;-72
2023/10/04 00:51:00;;;;;;;2.77;1.30;;;;;;;;;;6207794;28;20203;-71
2023/10/04 00:54:03;;;;;;;5.17;1.67;;;;;;;;;;6215040;28;20190;-72
2023/10/04 00:57:05;;;;;;;3.10;1.43;;;;;;;;;;6198939;28;20191;-72
2023/10/04 01:00:09;;;;;;;1.80;1.53;;;;;;;;;;6203568;28;20210;-72
2023/10/04 01:03:11;;;;;;;7.53;1.83;;;;;;;;;;6225705;28;20216;-72
2023/10/04 01:06:14;;;;;;;1.80;1.20;;;;;;;;;;6231818;28;20234;-72
2023/10/04 01:09:15;;;;;;;2.70;1.70;;;;;;;;;;6230109;28;20190;-72
2023/10/04 01:12:21;;;;;;;4.73;2.03;;;;;;;;;;6204925;28;20226;-72
2023/10/04 01:15:30;;;;;;;3.17;1.70;;;;;;;;;;6222172;28;20190;-72
2023/10/04 01:18:31;;;;;;;2.20;1.77;;;;;;;;;;6230257;28;20302;-72
2023/10/04 01:21:32;;;;;;;3.03;1.70;;;;;;;;;;6219256;28;20198;-72
2023/10/04 01:24:34;;;;;;;3.20;2.00;;;;;;;;;;6217757;28;20241;-72
2023/10/04 01:27:38;;;;;;;4.30;2.20;;;;;;;;;;6212015;28;20218;-72
2023/10/04 01:30:40;;;;;;;2.80;1.90;;;;;;;;;;6229813;28;20187;-72
2023/10/04 01:33:41;;;;;;;3.40;2.17;;;;;;;;;;6212098;28;20233;-72
2023/10/04 01:36:43;;;;;;;3.43;1.97;;;;;;;;;;6215735;28;20285;-72
2023/10/04 01:39:44;;;;;;;3.43;2.10;;;;;;;;;;6220149;28;20223;-72
2023/10/04 01:42:46;;;;;;;5.00;2.03;;;;;;;;;;6209643;28;20194;-72
2023/10/04 01:45:55;;;;;;;3.40;1.93;;;;;;;;;;6221072;28;20223;-72
2023/10/04 01:48:56;;;;;;;2.87;1.87;;;;;;;;;;6231825;28;20199;-72
2023/10/04 01:51:57;;;;;;;3.97;2.30;;;;;;;;;;6229282;28;20195;-72
2023/10/04 01:54:58;;;;;;;4.90;2.10;;;;;;;;;;6208006;28;20190;-72
2023/10/04 01:57:59;;;;;;;4.67;2.13;;;;;;;;;;6214124;28;20248;-72
2023/10/04 02:01:00;;;;;;;4.43;1.90;;;;;;;;;;6213068;28;20195;-72
2023/10/04 02:04:05;;;;;;;3.87;1.90;;;;;;;;;;6209010;28;20197;-72
2023/10/04 02:07:07;;;;;;;2.80;1.70;;;;;;;;;;6209699;28;20307;-72
2023/10/04 02:10:09;;;;;;;3.10;1.97;;;;;;;;;;6214335;28;20207;-72
2023/10/04 02:13:15;;;;;;;2.30;1.80;;;;;;;;;;6220437;28;20197;-72
2023/10/04 02:16:19;;;;;;;3.13;1.70;;;;;;;;;;6211567;28;20226;-72
2023/10/04 02:19:22;;;;;;;2.87;1.83;;;;;;;;;;6215677;28;20222;-72
2023/10/04 02:22:23;;;;;;;3.30;2.10;;;;;;;;;;6198724;28;20242;-72
2023/10/04 02:25:25;;;;;;;4.00;1.93;;;;;;;;;;6209829;28;20226;-71
2023/10/04 02:28:26;;;;;;;3.80;2.20;;;;;;;;;;6207876;28;20221;-72
2023/10/04 02:31:29;;;;;;;4.17;1.90;;;;;;;;;;6208918;28;20191;-72
2023/10/04 02:34:30;;;;;;;3.03;1.97;;;;;;;;;;6213029;28;20211;-72
2023/10/04 02:37:32;;;;;;;4.67;2.50;;;;;;;;;;6210720;28;20194;-72
2023/10/04 02:40:33;;;;;;;2.83;2.00;;;;;;;;;;6214419;28;20197;-72
2023/10/04 02:43:35;;;;;;;3.23;2.10;;;;;;;;;;6225350;28;20198;-72
2023/10/04 02:46:36;;;;;;;3.03;1.70;;;;;;;;;;6216805;28;20306;-72
2023/10/04 02:49:39;;;;;;;3.40;1.90;;;;;;;;;;6209628;28;20223;-72
2023/10/04 02:52:40;;;;;;;2.93;1.77;;;;;;;;;;6206349;28;20250;-72
2023/10/04 02:55:42;;;;;;;4.27;2.10;;;;;;;;;;6217200;28;20227;-72
2023/10/04 02:58:43;;;;;;;4.87;2.20;;;;;;;;;;6206785;28;20198;-72
2023/10/04 03:01:44;;;;;;;2.73;1.90;;;;;;;;;;6212328;28;20198;-72
2023/10/04 03:04:46;;;;;;;3.73;2.03;;;;;;;;;;6221958;28;20196;-72
2023/10/04 03:07:49;;;;;;;3.70;2.07;;;;;;;;;;6209241;28;20277;-72
2023/10/04 03:10:50;;;;;;;2.60;2.00;;;;;;;;;;6217176;28;20186;-71
2023/10/04 03:13:51;;;;;;;4.63;2.17;;;;;;;;;;6221661;28;20203;-72
2023/10/04 03:16:53;;;;;;;2.83;2.17;;;;;;;;;;6216409;28;20195;-73
2023/10/04 03:19:54;;;;;;;3.43;2.30;;;;;;;;;;6209546;28;20192;-72
2023/10/04 03:22:55;;;;;;;2.77;1.83;;;;;;;;;;6216272;28;20681;-72
2023/10/04 03:26:00;;;;;;;2.23;1.63;;;;;;;;;;6211899;28;20248;-72
2023/10/04 03:29:01;;;;;;;3.37;1.97;;;;;;;;;;6213129;28;20195;-73
2023/10/04 03:32:03;;;;;;;2.43;1.90;;;;;;;;;;6209629;28;20230;-73
2023/10/04 03:35:06;;;;;;;2.60;1.90;;;;;;;;;;6214327;28;20199;-73
2023/10/04 03:38:07;;;;;;;3.30;2.00;;;;;;;;;;6220850;28;20196;-72
2023/10/04 03:41:08;;;;;;;3.03;2.10;;;;;;;;;;6204851;28;20199;-72
2023/10/04 03:44:09;;;;;;;3.40;1.80;;;;;;;;;;6209973;28;20259;-72
2023/10/04 03:47:10;;;;;;;2.73;1.93;;;;;;;;;;6216783;28;20219;-72
2023/10/04 03:50:17;;;;;;;2.10;1.40;;;;;;;;;;6206841;28;20186;-72
2023/10/04 03:53:22;;;;;;;3.00;1.90;;;;;;;;;;6225137;28;20184;-72
2023/10/04 03:56:25;;;;;;;2.60;1.77;;;;;;;;;;6229716;28;20191;-72
2023/10/04 03:59:26;;;;;;;3.13;1.80;;;;;;;;;;6210610;28;20195;-72
2023/10/04 04:02:27;;;;;;;3.67;1.87;;;;;;;;;;6209221;28;20242;-72
2023/10/04 04:05:30;;;;;;;3.10;2.00;;;;;;;;;;6205432;28;20215;-72
2023/10/04 04:08:31;;;;;;;3.23;1.73;;;;;;;;;;6216434;28;20192;-73
2023/10/04 04:11:32;;;;;;;2.80;2.00;;;;;;;;;;6212820;28;20192;-72
2023/10/04 04:14:33;;;;;;;3.70;1.83;;;;;;;;;;6206976;28;20277;-72
2023/10/04 04:17:35;;;;;;;2.07;1.63;;;;;;;;;;6201965;28;20194;-72
2023/10/04 04:20:36;;;;;;;2.10;1.60;;;;;;;;;;6216026;28;20196;-72
2023/10/04 04:23:37;;;;;;;2.93;2.00;;;;;;;;;;6205975;28;20328;-74
2023/10/04 04:26:39;;;;;;;2.13;1.30;;;;;;;;;;6216269;28;20226;-72
2023/10/04 04:29:40;;;;;;;2.70;1.73;;;;;;;;;;6202858;28;20184;-73
2023/10/04 04:32:41;;;;;;;3.80;2.40;;;;;;;;;;6212882;28;20191;-71
2023/10/04 04:38:47;;;;;;;2.83;1.77;;;;;;;;;;6216965;28;20202;-73
2023/10/04 04:41:52;;;;;;;4.07;2.00;;;;;;;;;;6222961;28;20191;-72
2023/10/04 04:44:56;;;;;;;2.47;1.60;;;;;;;;;;6212784;28;20245;-73
2023/10/04 04:47:59;;;;;;;2.77;1.93;;;;;;;;;;6217001;28;20307;-72
2023/10/04 04:51:18;;;;;;;6.07;1.87;;;;;;;;;;6212597;28;20275;-72
2023/10/04 04:54:19;;;;;;;5.50;2.23;;;;;;;;;;6197599;28;20254;-72
2023/10/04 04:57:20;;;;;;;6.33;2.40;;;;;;;;;;6207931;28;20202;-72
2023/10/04 05:00:42;;;;;;;2.47;2.10;;;;;;;;;;6212597;28;20198;-72
2023/10/04 05:03:45;;;;;;;3.43;2.17;;;;;;;;;;6218222;28;20223;-72
2023/10/04 05:06:46;;;;;;;2.37;1.53;;;;;;;;;;6222953;28;20203;-72
2023/10/04 05:09:47;;;;;;;3.23;1.57;;;;;;;;;;6212097;28;20201;-72
2023/10/04 05:12:49;;;;;;;3.67;1.67;;;;;;;;;;6215500;28;20265;-72
2023/10/04 05:15:50;;;;;;;2.80;2.10;;;;;;;;;;6213744;28;20242;-72
2023/10/04 05:18:53;;;;;;;2.80;2.07;;;;;;;;;;6228589;28;20230;-72
2023/10/04 05:21:54;;;;;;;4.67;1.67;;;;;;;;;;6208026;28;20204;-72
2023/10/04 05:24:55;;;;;;;3.63;2.03;;;;;;;;;;6204163;28;20203;-72
2023/10/04 05:28:06;;;;;;;3.50;2.10;;;;;;;;;;6205706;28;20223;-72
2023/10/04 05:31:08;;;;;;;2.90;1.77;;;;;;;;;;6223810;28;20194;-72
2023/10/04 05:34:10;;;;;;;2.63;2.03;;;;;;;;;;6214118;28;20194;-72
2023/10/04 05:37:11;;;;;;;2.57;1.80;;;;;;;;;;6225537;28;20201;-72
2023/10/04 05:40:34;;;;;;;2.70;1.77;;;;;;;;;;6207761;28;20191;-72
2023/10/04 05:43:34;;;;;;;2.57;1.80;;;;;;;;;;6231518;28;20203;-72
2023/10/04 05:46:37;;;;;;;2.77;1.97;;;;;;;;;;6210079;28;20215;-72
2023/10/04 05:49:38;;;;;;;3.40;1.90;;;;;;;;;;6213374;28;20222;-72
2023/10/04 05:52:39;;;;;;;2.57;1.83;;;;;;;;;;6203687;28;20199;-72
2023/10/04 05:55:40;;;;;;;3.47;2.20;;;;;;;;;;6214997;28;20195;-72
2023/10/04 05:58:41;;;;;;;4.37;2.17;;;;;;;;;;6215013;28;20198;-72
2023/10/04 06:01:42;;;;;;;2.90;1.90;;;;;;;;;;6198874;28;20197;-72
2023/10/04 06:04:44;;;;;;;3.40;2.00;;;;;;;;;;6228120;28;20206;-72
2023/10/04 06:07:46;;;;;;;2.50;1.57;;;;;;;;;;6213539;28;20221;-72
2023/10/04 06:10:48;;;;;;;2.90;1.73;;;;;;;;;;6208814;28;20192;-72
2023/10/04 06:13:50;;;;;;;3.43;1.93;;;;;;;;;;6210627;28;20207;-72
2023/10/04 06:16:51;;;;;;;3.43;2.23;;;;;;;;;;6208985;28;20196;-72
2023/10/04 06:19:54;;;;;;;3.43;1.57;;;;;;;;;;6211592;28;20309;-72
2023/10/04 06:22:57;;;;;;;3.60;1.87;;;;;;;;;;6213074;28;20239;-72
2023/10/04 06:25:58;;;;;;;4.80;2.20;;;;;;;;;;6222261;28;20309;-72
2023/10/04 06:28:59;;;;;;;2.20;1.87;;;;;;;;;;6221523;28;20190;-72
2023/10/04 06:32:00;;;;;;;2.73;1.83;;;;;;;;;;6210446;28;20199;-72
2023/10/04 06:35:01;;;;;;;3.07;1.90;;;;;;;;;;6220791;28;20195;-72
2023/10/04 06:38:06;;;;;;;3.20;2.13;;;;;;;;;;6212550;28;20195;-72
2023/10/04 06:41:07;;;;;;;5.13;2.23;;;;;;;;;;6228148;28;20274;-72
2023/10/04 06:44:08;;;;;;;2.73;2.17;;;;;;;;;;6201459;28;20228;-72
2023/10/04 06:47:10;;;;;;;3.30;2.47;;;;;;;;;;6205067;28;20234;-73
2023/10/04 06:50:15;;;;;;;3.80;2.23;;;;;;;;;;6207973;28;20198;-73
2023/10/04 06:53:17;;;;;;;3.10;2.03;;;;;;;;;;6218811;28;20183;-73
2023/10/04 06:56:18;;;;;;;2.33;1.90;;;;;;;;;;6217505;28;20199;-73
2023/10/04 06:59:19;;;;;;;2.40;1.90;;;;;;;;;;6205508;28;20202;-72
2023/10/04 07:02:20;;;;;;;3.87;1.97;;;;;;;;;;6215935;28;20187;-72
2023/10/04 07:05:22;;;;;;;3.30;2.07;;;;;;;;;;6219275;28;20239;-72
2023/10/04 07:08:29;;;;;;;2.97;2.00;;;;;;;;;;6227230;28;20190;-72
2023/10/04 07:11:30;;;;;;;2.83;1.90;;;;;;;;;;6202066;28;20215;-72
2023/10/04 07:14:31;;;;;;;3.53;1.93;;;;;;;;;;6208150;28;20195;-72
2023/10/04 07:17:32;;;;;;;2.10;1.60;;;;;;;;;;6207459;28;20196;-72
2023/10/04 07:20:34;;;;;;;2.93;2.00;;;;;;;;;;6201830;28;20283;-72
2023/10/04 07:23:35;;;;;;;2.37;1.83;;;;;;;;;;6228018;28;20298;-72
2023/10/04 07:26:36;;;;;;;2.77;1.90;;;;;;;;;;6213087;28;20222;-72
2023/10/04 07:29:37;;;;;;;3.33;1.97;;;;;;;;;;6218637;28;20186;-72
2023/10/04 07:32:38;;;;;;;3.03;2.07;;;;;;;;;;6213135;28;20193;-72
2023/10/04 07:35:39;;;;;;;3.30;2.10;;;;;;;;;;6225040;28;20282;-72
2023/10/04 07:38:42;;;;;;;2.47;1.73;;;;;;;;;;6197971;28;20202;-72
2023/10/04 07:41:43;;;;;;;2.43;1.90;;;;;;;;;;6211230;28;20207;-72
2023/10/04 07:44:44;;;;;;;1.90;1.70;;;;;;;;;;6201542;28;20198;-72
2023/10/04 07:47:48;;;;;;;2.60;1.70;;;;;;;;;;6205487;28;20276;-72
2023/10/04 07:50:49;;;;;;;2.50;1.67;;;;;;;;;;6200058;28;20183;-72
2023/10/04 07:53:52;;;;;;;1.97;1.70;;;;;;;;;;6202051;28;20199;-72
2023/10/04 07:56:53;;;;;;;4.20;1.87;;;;;;;;;;6211809;28;20202;-72
2023/10/04 07:59:55;;;;;;;4.97;4.27;;;;;;;;;;6212893;28;20199;-72
2023/10/04 08:02:57;;;;;;;3.33;2.47;;;;;;;;;;6227977;28;20191;-72
2023/10/04 08:05:58;;;;;;;3.40;2.47;;;;;;;;;;6217129;28;20261;-72
2023/10/04 08:08:59;;;;;;;2.60;2.20;;;;;;;;;;6203275;28;20198;-72
2023/10/04 08:12:00;;;;;;;3.33;2.27;;;;;;;;;;6204141;28;20194;-72
2023/10/04 08:15:03;;;;;;;2.20;1.80;;;;;;;;;;6212285;28;20193;-70
2023/10/04 08:18:04;;;;;;;3.47;2.23;;;;;;;;;;6224606;28;20245;-72
2023/10/04 08:21:08;;;;;;;4.23;2.10;;;;;;;;;;6212607;28;20294;-72
2023/10/04 08:24:09;;;;;;;3.53;2.20;;;;;;;;;;6216916;28;20250;-72
2023/10/04 08:27:10;;;;;;;4.40;2.27;;;;;;;;;;6196732;28;20223;-72
2023/10/04 08:30:13;;;;;;;3.47;2.60;;;;;;;;;;6199754;28;20191;-71
2023/10/04 08:33:14;;;;;;;4.43;2.17;;;;;;;;;;6222091;28;20243;-72
2023/10/04 08:36:16;;;;;;;4.47;2.77;;;;;;;;;;6196693;28;20192;-72
2023/10/04 08:39:17;;;;;;;4.27;2.83;;;;;;;;;;6198931;28;20290;-72
2023/10/04 08:42:18;;;;;;;3.23;2.67;;;;;;;;;;6199400;28;20198;-72
2023/10/04 08:45:29;;;;;;;6.33;3.80;;;;;;;;;;6199828;28;20195;-72
2023/10/04 08:48:31;;;;;;;5.83;4.13;;;;;;;;;;6210303;28;20191;-71
2023/10/04 08:51:44;;;;;;;5.13;4.60;;;;;;;;;;6197930;28;20248;-72
2023/10/04 08:54:50;;;;;;;8.13;5.47;;;;;;;;;;6213915;28;20233;-71
2023/10/04 08:57:53;;;;;;;6.53;5.37;;;;;;;;;;6212213;28;20262;-71
2023/10/04 09:00:54;;;;;;;7.37;5.50;;;;;;;;;;6221249;28;20204;-71
2023/10/04 09:03:56;;;;;;;6.07;5.03;;;;;;;;;;6202061;28;20191;-72
2023/10/04 09:06:57;;;;;;;6.63;5.17;;;19.90;62.90;;;;;;6218619;28;20207;-71
2023/10/04 09:09:59;;;;;;;6.57;5.33;;;;;;;;;;6185653;28;20200;-72
2023/10/04 09:13:05;;;;;;;9.23;5.53;;;;;;;;;;6215207;28;20207;-71
2023/10/04 09:16:19;;;;;;;6.00;5.00;;;;;;;;;;6220273;28;20192;-71
2023/10/04 09:19:21;;;;;;;6.40;4.80;;;;;;;;;;6216060;28;20231;-71
2023/10/04 09:22:33;;;;;;;8.77;4.20;;;;;;;;;;6201305;28;20318;-71
2023/10/04 09:25:37;;;;;;;6.17;4.50;;;;;;;;;;6207109;28;20310;-71
2023/10/04 09:28:40;;;;;;;7.70;4.77;;;;;;;;;;6225162;28;20268;-72
2023/10/04 09:31:50;;;;;;;6.40;4.20;;;;;;;;;;6220337;28;20238;-72
2023/10/04 09:34:57;;;;;;;8.23;4.20;;;;;;;;;;6217628;28;20183;-71
2023/10/04 09:38:14;;;;;;;6.90;4.53;;;;;;;;;;6203568;28;20205;-72
2023/10/04 09:41:16;;;;;;;4.57;3.97;;;;;;;;;;6224640;28;20210;-72
2023/10/04 09:44:27;;;;;;;6.37;4.80;;;;;;;;;;6210134;28;20190;-72
2023/10/04 09:47:37;;;;;;;6.50;4.93;;;;;;;;;;6227691;28;20223;-72
2023/10/04 09:50:39;;;;;;;6.87;5.83;;;;;;;;;;6221243;28;20187;-72
2023/10/04 09:53:41;;;;;;;8.50;6.27;;;;;;;;;;6226492;28;20197;-72
2023/10/04 09:56:42;;;;;;;8.70;5.40;;;;;;;;;;6214816;28;20190;-71
2023/10/04 09:59:43;;;;;;;8.40;5.67;;;;;;;;;;6221814;28;20190;-71
2023/10/04 10:02:49;;;;;;;9.87;6.03;;;;;;;;;;6206709;28;20198;-72
2023/10/04 10:05:50;;;;;;;8.93;5.70;;;;;;;;;;6241976;28;20219;-72
2023/10/04 10:08:53;;;;;;;6.47;5.53;;;;;;;;;;6206501;28;20202;-72
2023/10/04 10:11:55;;;;;;;8.27;6.10;;;;;;;;;;6229575;28;20191;-72
2023/10/04 10:15:00;;;;;;;8.57;6.17;;;;;;;;;;6226896;28;20198;-71
2023/10/04 10:18:01;;;;;;;9.27;5.80;;;;;;;;;;6215412;28;20202;-71
2023/10/04 10:21:02;;;;;;;9.53;5.43;;;;;;;;;;6227770;28;20194;-71
2023/10/04 10:24:09;;;;;;;6.60;5.50;;;;;;;;;;6202561;28;20321;-71
2023/10/04 10:27:10;;;;;;;7.67;4.87;;;;;;;;;;6212461;28;20309;-72
2023/10/04 10:30:12;;;;;;;6.87;5.40;;;;;;;;;;6230838;28;20218;-72
2023/10/04 10:33:13;;;;;;;8.10;5.43;;;;;;;;;;6226721;28;20199;-72
2023/10/04 10:36:24;;;;;;;5.67;4.80;;;;;;;;;;6201813;28;20194;-71
2023/10/04 10:39:28;;;;;;;8.17;5.17;;;;;;;;;;6227995;28;20192;-71
2023/10/04 10:42:49;;;;;;;5.70;4.93;;;;;;;;;;6211145;28;20206;-71
2023/10/04 10:45:51;;;;;;;6.00;4.83;;;;;;;;;;6228951;28;20448;-71
2023/10/04 10:48:58;;;;;;;10.73;5.13;;;;;;;;;;6208845;28;20197;-72
2023/10/04 10:51:59;;;;;;;6.97;5.23;;;;;;;;;;6222964;28;20191;-72
2023/10/04 10:55:01;;;;;;;6.37;5.03;;;;;;;;;;6210819;28;20190;-72
2023/10/04 10:58:02;;;;;;;7.83;5.03;;;;;;;;;;6219044;28;20187;-72
2023/10/04 11:01:03;;;;;;;7.97;4.47;;;;;;;;;;6223498;28;20195;-72
2023/10/04 11:04:04;;;;;;;5.90;4.40;;;;;;;;;;6209874;28;20199;-72
2023/10/04 11:07:06;;;;;;;4.60;3.83;;;;;;;;;;6206725;28;20306;-72
2023/10/04 11:10:08;;;;;;;8.17;4.20;;;;;;;;;;6230886;28;20186;-72
2023/10/04 11:13:14;;;;;;;7.13;5.13;;;;;;;;;;6212121;28;20199;-72
2023/10/04 11:16:16;;;;;;;6.60;5.13;;;;;;;;;;6223069;28;20187;-73
2023/10/04 11:19:17;;;;;;;10.17;4.90;;;;;;;;;;6210719;28;20187;-73
2023/10/04 11:22:19;;;;;;;6.37;3.97;;;;;;;;;;6197510;28;20334;-72
2023/10/04 11:25:21;;;;;;;8.23;4.40;;;;;;;;;;6208385;28;20206;-72
2023/10/04 11:28:22;;;;;;;5.53;4.20;;;;;;;;;;6206651;28;20195;-72
2023/10/04 11:31:23;;;;;;;4.80;3.83;;;;;;;;;;6207257;28;20217;-71
2023/10/04 11:34:28;;;;;;;5.67;4.27;;;;;;;;;;6212424;28;20286;-72
2023/10/04 11:37:29;;;;;;;5.33;3.97;;;;;;;;;;6227277;28;20269;-72
2023/10/04 11:40:31;;;;;;;5.47;4.37;;;;;;;;;;6214039;28;20228;-70
2023/10/04 11:43:32;;;;;;;6.03;4.47;;;;;;;;;;6206500;28;20233;-72
2023/10/04 11:46:57;;;;;;;5.77;4.03;;;;;;;;;;6203395;28;20226;-72
2023/10/04 11:49:59;;;;;;;6.20;4.17;;;;;;;;;;6207271;28;20226;-72
2023/10/04 11:53:00;;;;;;;6.77;4.70;;;;;;;;;;6224607;28;20199;-72
2023/10/04 11:56:03;;;;;;;7.00;4.53;;;;;;;;;;6227424;28;20190;-70
2023/10/04 11:59:04;;;;;;;8.90;5.97;;;;;;;;;;6208079;28;20199;-70
2023/10/04 12:02:05;;;;;;;9.97;6.03;;;;;;;;;;6213648;28;20253;-71
2023/10/04 12:05:06;;;;;;;9.87;6.40;;;;;;;;;;6213317;28;20203;-71
2023/10/04 12:08:09;;;;;;;7.13;5.67;;;;;;;;;;6207172;28;20227;-71
2023/10/04 12:11:13;;;;;;;10.70;6.27;;;;;;;;;;6209334;28;20196;-71
2023/10/04 12:14:15;;;;;;;9.07;5.37;;;;;;;;;;6215869;28;20225;-71
2023/10/04 12:17:16;;;;;;;6.30;5.40;;;;;;;;;;6196140;28;20195;-71
2023/10/04 12:20:20;;;;;;;8.17;5.73;;;;;;;;;;6204705;28;20290;-71
2023/10/04 12:23:22;;;;;;;7.40;5.73;;;;;;;;;;6197656;28;20254;-71
2023/10/04 12:26:24;;;;;;;7.43;6.60;;;;;;;;;;6197270;28;20207;-71
2023/10/04 12:29:27;;;;;;;10.73;7.37;;;;;;;;;;6223799;28;20179;-71
2023/10/04 12:32:29;;;;;;;8.97;6.93;;;;;;;;;;6217063;28;20179;-71
2023/10/04 12:35:30;;;;;;;8.40;6.20;;;;;;;;;;6212462;28;20213;-71
2023/10/04 12:38:31;;;;;;;8.20;6.30;;;;;;;;;;6223317;28;20201;-71
2023/10/04 12:41:33;;;;;;;9.93;6.37;;;;;;;;;;6212558;28;20183;-72
2023/10/04 12:44:37;;;;;;;7.50;6.80;;;;;;;;;;6218525;28;20188;-73
2023/10/04 12:47:41;;;;;;;8.73;6.20;;;;;;;;;;6210806;28;20242;-73
2023/10/04 12:50:42;;;;;;;7.67;6.20;;;;;;;;;;6198983;28;20195;-72
2023/10/04 12:53:44;;;;;;;6.90;5.87;;;;;;;;;;6205311;28;20196;-72
2023/10/04 12:56:46;;;;;;;5.83;5.23;;;;;;;;;;6204480;28;20188;-72
2023/10/04 12:59:47;;;;;;;5.90;5.13;;;;;;;;;;6208374;28;20198;-72
2023/10/04 13:02:48;;;;;;;6.33;5.23;;;;;;;;;;6198040;28;20191;-72
2023/10/04 13:05:49;;;;;;;6.60;5.23;;;;;;;;;;6206554;28;20239;-72
2023/10/04 13:08:50;;;;;;;7.00;5.37;;;;;;;;;;6219298;28;20195;-73
2023/10/04 13:11:52;;;;;;;5.30;4.80;;;;;;;;;;6214239;28;20188;-72
2023/10/04 13:14:55;;;;;;;6.53;4.30;;;;;;;;;;6208728;28;20199;-71
2023/10/04 13:17:56;;;;;;;5.70;4.57;;;;;;;;;;6212127;28;20188;-71
2023/10/04 13:20:58;;;;;;;8.53;4.07;;;;;;;;;;6210463;28;20202;-72
2023/10/04 13:23:59;;;;;;;9.33;3.93;;;;;;;;;;6218639;28;20234;-72
2023/10/04 13:27:01;;;;;;;4.70;4.17;;;;;;;;;;6211123;28;20217;-70
2023/10/04 13:30:04;;;;;;;4.97;3.57;;;;;;;;;;6216763;28;20191;-69
2023/10/04 13:33:05;;;;;;;5.00;3.60;;;;;;;;;;6229975;28;20195;-72
2023/10/04 13:36:06;;;;;;;7.20;4.23;;;;;;;;;;6212280;28;20198;-71
2023/10/04 13:39:07;;;;;;;7.77;3.53;;;;;;;;;;6211836;28;20198;-70
2023/10/04 13:42:09;;;;;;;4.80;3.80;;;;;;;;;;6218458;28;20194;-70
2023/10/04 13:45:10;;;;;;;6.27;3.37;;;;;;;;;;6212955;28;20195;-70
2023/10/04 13:48:11;;;;;;;5.03;3.03;;;;;;;;;;6222635;28;20222;-71
2023/10/04 13:51:21;;;;;;;7.03;3.87;;;;;;;;;;6216070;28;20190;-72
2023/10/04 13:54:22;;;;;;;6.30;3.30;;;;;;;;;;6225771;28;20198;-71
2023/10/04 13:57:24;;;;;;;6.00;3.30;;;;;;;;;;6234238;28;20187;-71
2023/10/04 14:00:25;;;;;;;6.60;3.83;;;;;;;;;;6212766;28;20210;-71
2023/10/04 14:03:26;;;;;;;5.00;3.27;;;;;;;;;;6219332;28;20195;-70
2023/10/04 14:06:27;;;;;;;6.40;3.43;;;;;;;;;;6215166;28;20213;-74
2023/10/04 14:09:28;;;;;;;5.40;3.50;;;;;;;;;;6213387;28;20204;-73
2023/10/04 14:12:30;;;;;;;4.37;3.40;;;;;;;;;;6203701;28;20198;-72
2023/10/04 14:15:32;;;;;;;5.03;3.30;;;;;;;;;;6208251;28;20186;-72
2023/10/04 14:18:33;;;;;;;4.27;3.33;;;20.00;78.20;;;;;;6232357;28;20209;-73
2023/10/04 14:21:34;;;;;;;4.83;3.17;;;20.70;74.60;;;;;;6207466;28;20195;-73
2023/10/04 14:24:35;;;;;;;3.17;2.87;;;;;;;;;;6182539;28;20239;-70
2023/10/04 14:27:35;;;;;;;8.20;3.07;;;20.80;73.40;;;;;;6218700;28;20230;-74
2023/10/04 14:30:39;;;;;;;3.73;3.10;;;;;;;;;;6195008;28;20184;-73
2023/10/04 14:33:41;;;;;;;5.50;3.70;;;19.10;77.00;;;;;;6214225;28;20203;-69
2023/10/04 14:36:42;;;;;;;4.23;3.40;;;18.70;79.50;;;;;;6197970;28;20204;-69
2023/10/04 14:39:43;;;;;;;4.93;3.60;;;18.40;80.90;;;;;;6191647;28;20187;-69
2023/10/04 14:42:45;;;;;;;4.37;3.20;;;18.60;80.40;;;;;;6184082;28;20207;-69
2023/10/04 14:45:47;;;;;;;5.57;3.00;;;19.70;77.50;;;;;;6219282;28;20183;-69
2023/10/04 14:48:48;;;;;;;6.03;3.70;;;20.40;75.10;;;;;;6186784;28;20191;-69
2023/10/04 14:51:49;;;;;;;4.40;3.30;;;20.30;72.90;;;;;;6198626;28;20183;-69
2023/10/04 14:54:49;;;;;;;6.03;3.43;;;20.50;73.00;;;;;;6200929;28;20272;-70
2023/10/04 14:57:50;;;;;;;3.70;3.30;;;20.60;71.60;;;;;;6178050;28;20195;-70
2023/10/04 15:00:55;;;;;;;3.97;3.17;;;20.30;72.50;;;;;;6172551;28;20195;-70
2023/10/04 15:03:57;;;;;;;7.03;3.90;;;20.20;72.80;;;;;;6205554;28;20656;-70
2023/10/04 15:06:57;;;;;;;5.27;3.43;;;20.10;71.90;;;;;;6203193;28;20211;-70
2023/10/04 15:09:58;;;;;;;5.23;3.47;;;19.80;73.20;;;;;;6189762;28;20278;-70
2023/10/04 15:12:59;;;;;;;10.70;4.03;;;19.40;74.10;;;;;;6201466;28;20200;-69
2023/10/04 15:16:00;;;;;;;5.87;3.67;;;19.00;77.50;;;;;;6183572;28;20190;-70
2023/10/04 15:19:01;;;;;;;4.23;3.70;;;;;;;;;;6188761;28;20377;-70
2023/10/04 15:22:03;;;;;;;4.57;3.67;;;;;;;;;;6200758;28;20297;-70
2023/10/04 15:25:07;;;;;;;6.77;3.30;;;;;;;;;;6229255;28;20209;-70
2023/10/04 15:28:17;;;;;;;6.13;3.60;;;18.60;77.30;;;;;;6201907;28;20220;-70
2023/10/04 15:31:18;;;;;;;5.70;3.37;;;20.80;70.70;;;;;;6208580;28;20201;-70
2023/10/04 15:34:19;;;;;;;5.70;3.50;;;20.90;69.80;;;;;;6224566;28;20198;-70
2023/10/04 15:37:20;;;;;;;5.07;3.40;;;20.30;71.60;;;;;;6214252;28;20190;-70
2023/10/04 15:40:24;;;;;;;4.43;3.67;;;19.70;73.80;;;;;;6185739;28;21082;-70
2023/10/04 15:43:25;;;;;;;4.10;3.27;;;19.20;75.60;;;;;;6201082;28;20273;-70
2023/10/04 15:46:26;;;;;;;5.80;3.90;;;;;;;;;;6192547;28;20223;-70
2023/10/04 15:49:27;;;;;;;5.20;3.27;;;;;;;;;;6207169;28;20192;-70
2023/10/04 15:52:28;;;;;;;3.43;3.13;;;;;;;;;;6236690;28;20189;-70
2023/10/04 15:55:29;;;;;;;4.93;3.60;;;;;;;;;;6216605;28;20196;-70
2023/10/04 15:58:31;;;;;;;4.23;2.80;;;;;;;;;;6207660;28;20197;-70
2023/10/04 16:01:32;;;;;;;3.13;2.77;;;;;;;;;;6213957;28;20190;-70
2023/10/04 16:04:33;;;;;;;5.03;3.90;;;;;;;;;;6208662;28;20204;-70
2023/10/04 16:07:35;;;;;;;4.53;3.23;;;;;;;;;;6212360;28;20210;-70
2023/10/04 16:10:37;;;;;;;5.57;2.93;;;;;;;;;;6229300;28;20187;-70
2023/10/04 16:13:38;;;;;;;5.27;3.73;;;;;;;;;;6210419;28;20202;-71
2023/10/04 16:16:39;;;;;;;4.67;3.60;;;;;;;;;;6211037;28;20195;-70
2023/10/04 16:19:41;;;;;;;4.53;3.47;;;;;;;;;;6230542;28;20273;-70
2023/10/04 16:22:53;;;;;;;5.23;3.23;;;;;;;;;;6229865;28;20242;-69
2023/10/04 16:25:54;;;;;;;4.80;3.77;;;;;;;;;;6224458;28;20215;-69
2023/10/04 16:28:55;;;;;;;4.03;3.50;;;;;;;;;;6227746;28;20206;-70
2023/10/04 16:31:56;;;;;;;4.33;3.60;;;;;;;;;;6202384;28;20194;-70
2023/10/04 16:34:58;;;;;;;5.40;3.50;;;;;;;;;;6210520;28;20191;-70
2023/10/04 16:37:59;;;;;;;6.03;3.60;;;;;;;;;;6208246;28;20290;-70
2023/10/04 16:41:00;;;;;;;5.07;3.63;;;;;;;;;;6225967;28;20221;-70
2023/10/04 16:44:01;;;;;;;6.27;3.80;;;;;;;;;;6222907;28;20198;-67
2023/10/04 16:47:04;;;;;;;6.40;3.60;;;;;;;;;;6214081;28;20222;-67
2023/10/04 16:50:05;;;;;;;4.67;3.20;;;;;;;;;;6209226;28;20206;-67
2023/10/04 16:53:06;;;;;;;4.70;3.70;;;;;;;;;;6209647;28;20218;-67
2023/10/04 16:56:10;;;;;;;6.37;4.30;;;;;;;;;;6209020;28;20210;-68
2023/10/04 16:59:11;;;;;;;4.43;3.03;;;;;;;;;;6228897;28;20195;-68
2023/10/04 17:02:13;;;;;;;5.70;3.87;;;;;;;;;;6206005;28;20200;-69
2023/10/04 17:05:14;;;;;;;7.17;3.77;;;;;;;;;;6219842;28;20199;-69
2023/10/04 17:08:16;;;;;;;6.43;3.67;;;;;;;;;;6217038;28;20226;-67
2023/10/04 17:11:17;;;;;;;10.03;4.37;;;;;;;;;;6230546;28;20229;-67
2023/10/04 17:14:18;;;;;;;4.80;3.33;;;;;;;;;;6220425;28;20249;-67
2023/10/04 17:17:21;;;;;;;6.13;4.07;;;;;;;;;;6210227;28;20242;-68
2023/10/04 17:20:22;;;;;;;6.10;3.83;;;;;;;;;;6205694;28;20199;-68
2023/10/04 17:23:23;;;;;;;5.53;3.83;;;;;;;;;;6213273;28;20334;-68
2023/10/04 17:26:26;;;;;;;5.80;3.97;;;;;;;;;;6233227;28;20212;-68
2023/10/04 17:29:27;;;;;;;6.70;3.90;;;;;;;;;;6222021;28;20251;-68
2023/10/04 17:32:28;;;;;;;7.53;4.60;;;;;;;;;;6231128;28;20195;-68
2023/10/04 17:35:30;;;;;;;5.67;4.07;;;;;;;;;;6221944;28;20191;-68
2023/10/04 17:38:32;;;;;;;6.67;4.07;;;;;;;;;;6237677;28;20195;-67
2023/10/04 17:41:33;;;;;;;4.97;4.57;;;;;;;;;;6221396;28;20214;-68
2023/10/04 17:44:35;;;;;;;6.87;4.67;;;;;;;;;;6245019;28;20197;-68
2023/10/04 17:47:37;;;;;;;6.83;4.20;;;;;;;;;;6204818;28;20214;-69
2023/10/04 17:50:40;;;;;;;6.77;4.23;;;18.70;77.00;;;;;;6215140;28;20192;-69
2023/10/04 17:53:41;;;;;;;5.27;4.60;;;15.30;92.50;;;;;;6216189;28;20217;-71
2023/10/04 17:56:44;;;;;;;7.33;4.63;;;15.20;93.10;;;;;;6204817;28;20217;-70
2023/10/04 17:59:45;;;;;;;9.20;4.53;;;15.10;92.20;;;;;;6196493;28;20890;-70
2023/10/04 18:02:49;;;;;;;4.90;4.37;;;15.00;92.90;;;;;;6205404;28;20203;-70